Billie H — WCY4992 — position and weather

sailwx.info

Track history (hours):
 
Tides and Currents Weather Stations Pressure Air Temp Water Temp Dewpoint Dewpoint Depression Visibility Wind Speed Wind Dir Waves Ship Positions

Billie H

Owner: BOYER TOWING INC, KETCHIKAN, AK. More information available from US FCC via Universal Licensing System and Coast Guard Vessel Documentation Center.

Last reported at 2014-Dec-10 20:28 UTC. Time now 2014-Dec-20 16:35 UTC.
Position N 47°32' W 122°20'.
Warning: this ship's position is 9 days out of date.

Type: Tug. MMSI: 366751770.

Date/timePositionNaut miles runAvg speedWind from/ knotsBaromVisibWave heightAir tempDewpointWater temp
2014-Dec-10 20:28N 47°32' W 122°20'3 2.8
2014-Dec-10 19:33N 47°34' W 122°21'3 2.3
2014-Dec-10 18:27N 47°32' W 122°20'0 0.0
2014-Dec-10 17:27N 47°32' W 122°20'0 0.0
2014-Dec-10 16:27N 47°32' W 122°20'0 0.0
2014-Dec-10 05:28N 47°32' W 122°20'0 0.0
2014-Dec-10 04:33N 47°32' W 122°20'0 0.0
2014-Dec-10 03:33N 47°32' W 122°20'0 0.0
2014-Dec-10 02:33N 47°32' W 122°20'0 0.0
2014-Dec-10 01:33N 47°32' W 122°20'0 0.0
2014-Dec-10 00:33N 47°32' W 122°20'0 0.0
2014-Dec-09 23:33N 47°32' W 122°20'  
2014-Dec-04 18:16N 47°32' W 122°20'0 0.1
2014-Dec-04 18:11N 47°32' W 122°20'3 5.2
2014-Dec-04 17:33N 47°35' W 122°22'0 8.9
2014-Dec-04 17:31N 47°36' W 122°22'1010.2
2014-Dec-04 16:33N 47°43' W 122°32'0 1.5
2014-Dec-04 16:31N 47°43' W 122°32'0 0.1
2014-Dec-04 15:33N 47°43' W 122°32'0 0.0
2014-Dec-04 15:31N 47°43' W 122°32'4 4.1
2014-Dec-04 14:33N 47°45' W 122°27'0 8.2
2014-Dec-04 14:31N 47°45' W 122°27'8 8.4
2014-Dec-04 13:34N 47°53' W 122°29'0 7.6
2014-Dec-04 13:30N 47°54' W 122°30'7 7.8
2014-Dec-04 12:33N 47°59' W 122°37'13 8.7
2014-Dec-04 11:06N 48°10' W 122°46'9 8.9
2014-Dec-04 10:06N 48°19' W 122°47'5 8.2
2014-Dec-04 09:28N 48°24' W 122°45'6 6.8
2014-Dec-04 08:33N 48°30' W 122°45'7 6.6
2014-Dec-04 07:33N 48°37' W 122°45'8 7.7
2014-Dec-04 06:33N 48°45' W 122°47'10 9.9
2014-Dec-04 05:33N 48°50' W 122°60'10 9.7
2014-Dec-04 04:33N 48°56' W 123°11'10 9.7
2014-Dec-04 03:33N 49°02' W 123°23'10 9.7
2014-Dec-04 02:33N 49°08' W 123°34'10 9.7
2014-Dec-04 01:33N 49°15' W 123°45'21 9.3
2014-Dec-03 23:18N 49°29' W 124°09'7 8.8
2014-Dec-03 22:33N 49°32' W 124°18'9 9.0
2014-Dec-03 21:33N 49°37' W 124°30'9 9.1
2014-Dec-03 20:33N 49°43' W 124°41'13 9.2
2014-Dec-03 19:09N 49°51' W 124°56'69 6.9
2014-Dec-03 09:11N 50°29' W 126°25'5 8.5
2014-Dec-03 08:32N 50°30' W 126°34'9 8.6
2014-Dec-03 07:31N 50°33' W 126°47'10 8.9
2014-Dec-03 06:24N 50°41' W 126°55'9 8.9
2014-Dec-03 05:24N 50°46' W 127°07'8 9.0
2014-Dec-03 04:32N 50°50' W 127°17'9 9.3
2014-Dec-03 03:33N 50°56' W 127°28'9 8.8
2014-Dec-03 02:33N 51°02' W 127°38'8 8.3
2014-Dec-03 01:33N 51°08' W 127°48'17 8.2
2014-Dec-02 23:28N 51°23' W 127°59'  
Track history (hours):
 
Tides and Currents Weather Stations Pressure Air Temp Water Temp Dewpoint Dewpoint Depression Visibility Wind Speed Wind Dir Waves Ship Positions

Billie H

Owner: BOYER TOWING INC, KETCHIKAN, AK. More information available from US FCC via Universal Licensing System and Coast Guard Vessel Documentation Center.

Last reported at 2014-Dec-10 20:28 UTC. Time now 2014-Dec-20 16:35 UTC.
Position N 47°32' W 122°20'.
Warning: this ship's position is 9 days out of date.

Type: Tug. MMSI: 366751770.

Date/timePositionNaut miles runAvg speedWind from/ knotsBaromVisibWave heightAir tempDewpointWater temp
2014-Dec-10 20:28N 47°32' W 122°20'3 2.8
2014-Dec-10 19:33N 47°34' W 122°21'3 2.3
2014-Dec-10 18:27N 47°32' W 122°20'0 0.0
2014-Dec-10 17:27N 47°32' W 122°20'0 0.0
2014-Dec-10 16:27N 47°32' W 122°20'0 0.0
2014-Dec-10 05:28N 47°32' W 122°20'0 0.0
2014-Dec-10 04:33N 47°32' W 122°20'0 0.0
2014-Dec-10 03:33N 47°32' W 122°20'0 0.0
2014-Dec-10 02:33N 47°32' W 122°20'0 0.0
2014-Dec-10 01:33N 47°32' W 122°20'0 0.0
2014-Dec-10 00:33N 47°32' W 122°20'0 0.0
2014-Dec-09 23:33N 47°32' W 122°20'  
2014-Dec-04 18:16N 47°32' W 122°20'0 0.1
2014-Dec-04 18:11N 47°32' W 122°20'3 5.2
2014-Dec-04 17:33N 47°35' W 122°22'0 8.9
2014-Dec-04 17:31N 47°36' W 122°22'1010.2
2014-Dec-04 16:33N 47°43' W 122°32'0 1.5
2014-Dec-04 16:31N 47°43' W 122°32'0 0.1
2014-Dec-04 15:33N 47°43' W 122°32'0 0.0
2014-Dec-04 15:31N 47°43' W 122°32'4 4.1
2014-Dec-04 14:33N 47°45' W 122°27'0 8.2
2014-Dec-04 14:31N 47°45' W 122°27'8 8.4
2014-Dec-04 13:34N 47°53' W 122°29'0 7.6
2014-Dec-04 13:30N 47°54' W 122°30'7 7.8
2014-Dec-04 12:33N 47°59' W 122°37'13 8.7
2014-Dec-04 11:06N 48°10' W 122°46'9 8.9
2014-Dec-04 10:06N 48°19' W 122°47'5 8.2
2014-Dec-04 09:28N 48°24' W 122°45'6 6.8
2014-Dec-04 08:33N 48°30' W 122°45'7 6.6
2014-Dec-04 07:33N 48°37' W 122°45'8 7.7
2014-Dec-04 06:33N 48°45' W 122°47'10 9.9
2014-Dec-04 05:33N 48°50' W 122°60'10 9.7
2014-Dec-04 04:33N 48°56' W 123°11'10 9.7
2014-Dec-04 03:33N 49°02' W 123°23'10 9.7
2014-Dec-04 02:33N 49°08' W 123°34'10 9.7
2014-Dec-04 01:33N 49°15' W 123°45'21 9.3
2014-Dec-03 23:18N 49°29' W 124°09'7 8.8
2014-Dec-03 22:33N 49°32' W 124°18'9 9.0
2014-Dec-03 21:33N 49°37' W 124°30'9 9.1
2014-Dec-03 20:33N 49°43' W 124°41'13 9.2
2014-Dec-03 19:09N 49°51' W 124°56'69 6.9
2014-Dec-03 09:11N 50°29' W 126°25'5 8.5
2014-Dec-03 08:32N 50°30' W 126°34'9 8.6
2014-Dec-03 07:31N 50°33' W 126°47'10 8.9
2014-Dec-03 06:24N 50°41' W 126°55'9 8.9
2014-Dec-03 05:24N 50°46' W 127°07'8 9.0
2014-Dec-03 04:32N 50°50' W 127°17'9 9.3
2014-Dec-03 03:33N 50°56' W 127°28'9 8.8
2014-Dec-03 02:33N 51°02' W 127°38'8 8.3
2014-Dec-03 01:33N 51°08' W 127°48'17 8.2
2014-Dec-02 23:28N 51°23' W 127°59'  

Dump ship's entire track history